createdAt,value
2023-09-29T00:01:58.274Z,8.13
2023-09-29T00:07:08.546Z,8.63
2023-09-29T00:12:17.372Z,8.10
2023-09-29T00:17:22.497Z,7.75
2023-09-29T00:22:31.234Z,9.43
2023-09-29T00:27:40.925Z,9.07
2023-09-29T00:32:52.343Z,7.18
2023-09-29T00:38:03.111Z,8.32
2023-09-29T00:43:12.523Z,8.90
2023-09-29T00:48:23.884Z,8.40
2023-09-29T00:53:35.335Z,9.20
2023-09-29T00:58:40.859Z,9.05
2023-09-29T01:03:51.934Z,8.77
2023-09-29T01:08:57.047Z,8.80
2023-09-29T01:14:01.037Z,9.00
2023-09-29T01:19:14.037Z,9.43
2023-09-29T01:24:25.185Z,9.05
2023-09-29T01:29:33.874Z,8.75
2023-09-29T01:34:42.578Z,8.60
2023-09-29T01:39:52.712Z,8.65
2023-09-29T01:44:56.507Z,9.20
2023-09-29T01:50:06.146Z,9.15
2023-09-29T01:55:17.503Z,9.30
2023-09-29T02:00:25.294Z,8.52
2023-09-29T02:05:34.593Z,9.90
2023-09-29T02:10:47.042Z,9.95
2023-09-29T02:15:55.905Z,9.15
2023-09-29T02:20:59.749Z,9.13
2023-09-29T02:26:10.027Z,9.73
2023-09-29T02:31:18.816Z,9.43
2023-09-29T02:36:27.570Z,8.93
2023-09-29T02:41:40.085Z,10.30
2023-09-29T02:46:54.125Z,8.80
2023-09-29T02:52:05.222Z,8.88
2023-09-29T03:02:19.266Z,9.38
2023-09-29T03:07:28.698Z,9.38
2023-09-29T03:12:40.062Z,9.43
2023-09-29T03:17:44.154Z,9.43
2023-09-29T03:22:52.998Z,10.23
2023-09-29T03:28:05.910Z,8.85
2023-09-29T03:33:14.938Z,8.48
2023-09-29T03:38:26.402Z,9.80
2023-09-29T03:43:31.561Z,9.52
2023-09-29T03:48:38.039Z,9.45
2023-09-29T03:53:46.948Z,9.75
2023-09-29T03:58:52.657Z,8.88
2023-09-29T04:04:02.403Z,9.57
2023-09-29T04:09:11.375Z,9.68
2023-09-29T04:14:28.252Z,9.10
2023-09-29T04:19:39.637Z,9.27
2023-09-29T04:24:43.630Z,9.00
2023-09-29T04:29:53.940Z,8.95
2023-09-29T04:34:57.702Z,9.80
2023-09-29T04:40:01.668Z,9.88
2023-09-29T04:45:09.364Z,9.05
2023-09-29T04:50:18.526Z,10.10
2023-09-29T04:55:28.228Z,10.07
2023-09-29T05:00:35.886Z,10.10
2023-09-29T05:05:44.987Z,10.45
2023-09-29T05:10:50.629Z,12.45
2023-09-29T05:15:55.716Z,12.40
2023-09-29T05:21:04.715Z,11.43
2023-09-29T05:26:13.429Z,11.57
2023-09-29T05:31:23.632Z,11.63
2023-09-29T05:36:32.430Z,12.48
2023-09-29T05:41:36.198Z,10.88
2023-09-29T05:46:41.464Z,10.15
2023-09-29T05:51:50.645Z,9.47
2023-09-29T05:56:59.412Z,9.35
2023-09-29T06:02:18.249Z,9.27
2023-09-29T06:07:23.109Z,9.98
2023-09-29T06:12:31.861Z,9.70
2023-09-29T06:17:42.000Z,8.88
2023-09-29T06:22:45.771Z,8.95
2023-09-29T06:27:54.490Z,8.85
2023-09-29T06:33:04.993Z,8.02
2023-09-29T06:38:08.749Z,8.32
2023-09-29T06:43:18.592Z,7.55
2023-09-29T06:48:29.051Z,7.97
2023-09-29T06:53:38.215Z,7.13
2023-09-29T06:58:42.052Z,7.60
2023-09-29T07:03:49.040Z,6.60
2023-09-29T07:08:58.547Z,7.00
2023-09-29T07:14:07.639Z,6.07
2023-09-29T07:19:13.687Z,6.20
2023-09-29T07:24:24.769Z,5.50
2023-09-29T07:29:34.009Z,5.50
2023-09-29T07:34:39.137Z,5.13
2023-09-29T07:39:47.865Z,5.47
2023-09-29T07:44:56.624Z,5.40
2023-09-29T07:50:01.749Z,5.00
2023-09-29T07:55:06.302Z,4.85
2023-09-29T08:00:11.665Z,4.97
2023-09-29T08:05:26.877Z,4.22
2023-09-29T08:10:35.637Z,4.50
2023-09-29T08:15:39.347Z,4.93
2023-09-29T08:20:54.563Z,4.85
2023-09-29T08:26:04.368Z,4.88
2023-09-29T08:31:16.970Z,4.45
2023-09-29T08:36:28.302Z,4.72
2023-09-29T08:41:46.165Z,4.38
2023-09-29T08:46:51.369Z,5.10
2023-09-29T08:52:04.469Z,5.47
2023-09-29T08:57:13.796Z,4.72
2023-09-29T09:02:25.710Z,5.50
2023-09-29T09:07:36.492Z,5.03
2023-09-29T09:12:41.971Z,5.03
2023-09-29T09:17:48.157Z,4.47
2023-09-29T09:23:04.817Z,4.75
2023-09-29T09:28:08.699Z,5.55
2023-09-29T09:33:22.580Z,5.20
2023-09-29T09:38:34.928Z,4.82
2023-09-29T09:43:44.999Z,4.75
2023-09-29T09:49:08.938Z,5.10
2023-09-29T09:54:24.437Z,4.70
2023-09-29T09:59:29.589Z,4.97
2023-09-29T10:04:34.062Z,5.15
2023-09-29T10:09:47.040Z,5.50
2023-09-29T10:14:57.094Z,4.82
2023-09-29T10:20:00.953Z,5.38
2023-09-29T10:25:21.016Z,5.68
2023-09-29T10:30:30.220Z,4.10
2023-09-29T10:35:35.077Z,4.85
2023-09-29T10:40:40.764Z,3.90
2023-09-29T10:45:51.620Z,4.97
2023-09-29T10:51:00.401Z,4.97
2023-09-29T10:56:10.573Z,4.70
2023-09-29T11:01:20.834Z,4.90
2023-09-29T11:06:29.696Z,4.90
2023-09-29T11:11:40.604Z,4.83
2023-09-29T11:16:44.530Z,4.55
2023-09-29T11:21:48.294Z,4.68
2023-09-29T11:27:02.138Z,4.57
2023-09-29T11:32:06.416Z,5.18
2023-09-29T11:37:15.196Z,4.80
2023-09-29T11:42:20.878Z,5.43
2023-09-29T11:47:27.347Z,5.00
2023-09-29T11:52:36.433Z,4.50
2023-09-29T11:57:42.525Z,4.63
2023-09-29T12:02:51.370Z,4.95
2023-09-29T12:08:00.264Z,3.72
2023-09-29T12:13:11.519Z,4.90
2023-09-29T12:18:15.681Z,3.97
2023-09-29T12:23:19.721Z,3.97
2023-09-29T12:28:25.025Z,4.65
2023-09-29T12:33:34.709Z,4.10
2023-09-29T12:38:38.547Z,3.60
2023-09-29T12:43:48.613Z,3.50
2023-09-29T12:48:57.708Z,3.55
2023-09-29T12:54:01.733Z,3.55
2023-09-29T12:59:12.015Z,4.07
2023-09-29T13:04:26.599Z,3.70
2023-09-29T13:09:35.488Z,3.63
2023-09-29T13:14:42.104Z,3.42
2023-09-29T13:19:50.932Z,3.83
2023-09-29T13:24:54.838Z,3.97
2023-09-29T13:30:00.086Z,4.13
2023-09-29T13:35:10.280Z,3.50
2023-09-29T13:40:14.210Z,4.93
2023-09-29T13:45:20.184Z,3.78
2023-09-29T13:50:24.059Z,3.90
2023-09-29T13:55:28.078Z,3.95
2023-09-29T14:00:38.194Z,4.13
2023-09-29T14:05:42.740Z,3.80
2023-09-29T14:16:01.870Z,4.00
2023-09-29T14:21:10.743Z,4.07
2023-09-29T14:26:19.508Z,4.70
2023-09-29T14:31:24.863Z,3.97
2023-09-29T14:36:30.174Z,4.45
2023-09-29T14:41:33.991Z,3.67
2023-09-29T14:46:39.157Z,4.50
2023-09-29T14:51:48.182Z,4.10
2023-09-29T14:56:57.004Z,3.97
2023-09-29T15:02:02.592Z,3.72
2023-09-29T15:07:06.371Z,4.43
2023-09-29T15:12:15.439Z,4.00
2023-09-29T15:17:25.631Z,4.43
2023-09-29T15:22:29.346Z,4.68
2023-09-29T15:27:38.168Z,4.10
2023-09-29T15:32:48.420Z,4.25
2023-09-29T15:37:57.582Z,4.95
2023-09-29T15:43:02.493Z,4.40
2023-09-29T15:48:08.879Z,4.72
2023-09-29T15:53:15.800Z,5.30
2023-09-29T15:58:24.710Z,5.10
2023-09-29T16:03:30.183Z,5.25
2023-09-29T16:08:39.346Z,5.20
2023-09-29T16:13:43.141Z,4.70
2023-09-29T16:18:53.292Z,4.50
2023-09-29T16:23:57.275Z,4.50
2023-09-29T16:29:06.569Z,5.35
2023-09-29T16:34:11.829Z,7.90
2023-09-29T16:44:29.384Z,5.10
2023-09-29T16:49:39.533Z,6.40
2023-09-29T16:54:44.381Z,4.82
2023-09-29T16:59:53.380Z,5.90
2023-09-29T17:05:03.809Z,5.68
2023-09-29T17:10:08.743Z,5.75
2023-09-29T17:15:19.131Z,6.28
2023-09-29T17:20:26.971Z,5.93
2023-09-29T17:25:35.702Z,6.55
2023-09-29T17:30:39.856Z,6.32
2023-09-29T17:35:45.109Z,6.10
2023-09-29T17:40:50.941Z,7.03
2023-09-29T17:45:54.691Z,6.60
2023-09-29T17:51:06.094Z,6.70
2023-09-29T17:56:14.940Z,6.60
2023-09-29T18:01:19.901Z,6.93
2023-09-29T18:06:32.415Z,7.07
2023-09-29T18:11:41.321Z,6.85
2023-09-29T18:16:50.069Z,6.55
2023-09-29T18:21:55.516Z,7.35
2023-09-29T18:26:59.651Z,7.15
2023-09-29T18:32:03.643Z,7.18
2023-09-29T18:37:15.041Z,6.80
2023-09-29T18:42:23.817Z,7.32
2023-09-29T18:47:35.201Z,7.32
2023-09-29T18:52:45.426Z,7.93
2023-09-29T18:57:50.000Z,7.25
2023-09-29T19:02:58.925Z,7.47
2023-09-29T19:08:09.930Z,7.72
2023-09-29T19:13:14.010Z,7.70
2023-09-29T19:18:22.851Z,7.25
2023-09-29T19:23:33.088Z,7.47
2023-09-29T19:28:38.335Z,7.15
2023-09-29T19:33:47.260Z,7.18
2023-09-29T19:38:57.608Z,7.93
2023-09-29T19:44:01.666Z,7.43
2023-09-29T19:49:10.952Z,7.57
2023-09-29T19:54:21.082Z,7.80
2023-09-29T19:59:29.794Z,7.50
2023-09-29T20:04:38.849Z,7.45
2023-09-29T20:09:50.214Z,6.95
2023-09-29T20:14:58.967Z,7.53
2023-09-29T20:20:03.415Z,6.95
2023-09-29T20:25:13.541Z,7.28
2023-09-29T20:30:22.473Z,7.77
2023-09-29T20:35:31.463Z,7.97
2023-09-29T20:40:43.567Z,7.20
2023-09-29T20:45:47.486Z,7.32
2023-09-29T20:50:56.340Z,7.03
2023-09-29T20:56:01.636Z,7.05
2023-09-29T21:01:12.118Z,7.10
2023-09-29T21:06:20.947Z,8.00
2023-09-29T21:11:33.733Z,7.65
2023-09-29T21:16:37.506Z,7.57
2023-09-29T21:21:41.540Z,7.13
2023-09-29T21:26:51.700Z,7.50
2023-09-29T21:32:00.619Z,6.87
2023-09-29T21:37:04.372Z,7.40
2023-09-29T21:42:14.525Z,7.75
2023-09-29T21:47:23.293Z,7.10
2023-09-29T21:52:32.196Z,8.05
2023-09-29T21:57:37.509Z,7.07
2023-09-29T22:02:46.856Z,7.78
2023-09-29T22:07:55.752Z,7.68
2023-09-29T22:13:00.864Z,7.40
2023-09-29T22:18:09.756Z,8.17
2023-09-29T22:23:15.290Z,7.93
2023-09-29T22:28:25.360Z,7.40
2023-09-29T22:33:34.434Z,9.38
2023-09-29T22:38:43.262Z,8.18
2023-09-29T22:43:53.309Z,8.70
2023-09-29T22:49:02.046Z,7.25
2023-09-29T22:54:10.923Z,7.45
2023-09-29T22:59:16.185Z,8.20
2023-09-29T23:04:26.096Z,8.33
2023-09-29T23:09:30.297Z,7.68
2023-09-29T23:14:41.524Z,7.60
2023-09-29T23:19:50.262Z,8.32
2023-09-29T23:24:59.011Z,8.52
2023-09-29T23:30:11.093Z,8.70
2023-09-29T23:35:19.994Z,7.80
2023-09-29T23:40:28.756Z,8.77
2023-09-29T23:45:34.142Z,8.63
2023-09-29T23:50:43.199Z,8.37
2023-09-29T23:55:51.881Z,8.68
